»·PEaware :: N8824G KRNM-KONT

N8824G :: KRNM-KONT

FLIGHT INFORMATION

Flight Status: Arrived
Operator: Privately registered:
United States
More flights under this callsign
Pilot: Daniel E. (20059)
Aircraft: CESSNA 208 CARAVAN
(C208)
More flights by this aircraft type
Origin: KRNM Ramona
United States
Destination: KONT Ontario Intl
United States
More flights between these airports :: More routes between these airports
Route: SANP19
File this flight plan on PilotEdge
Remarks: TEC ROUTE SANP19
Altitude:
(Current/Filed)
6,000ft
Speed:
(Current/Filed)
175kts
Departed: 11-Sep-20 05:37 PM
Arrived: 11-Sep-20 06:20 PM
Distance/Time
Traveled:
70nm/0:42
Distance/Time
To Go:
Arrived

Flight Plot

Page will automatically refresh every two minutes.

Flight plan parsing failed; only flown route is shown


Map Options




Map Legend


Flown Route
Filed Route
Departure Airport
Arrival Airport
Navaid (VOR, NDB)
Fix

Horizontal Profiles

Position Reports

Time Latitude Longitude Heading Altitude Ground
Speed
11-Sep-20 17:22 33.040261 -116.913691 102 1399ft 0kts
11-Sep-20 17:23 33.040261 -116.913691 102 1399ft 0kts
11-Sep-20 17:24 33.040261 -116.913691 102 1399ft 0kts
11-Sep-20 17:25 33.040261 -116.913691 102 1399ft 0kts
11-Sep-20 17:26 33.040261 -116.913691 102 1399ft 0kts
11-Sep-20 17:27 33.040261 -116.913691 102 1399ft 0kts
11-Sep-20 17:28 33.040261 -116.913691 102 1399ft 0kts
11-Sep-20 17:29 33.040261 -116.913691 102 1399ft 0kts
11-Sep-20 17:30 33.040261 -116.913691 102 1399ft 0kts
11-Sep-20 17:31 33.040261 -116.913691 102 1399ft 0kts
11-Sep-20 17:32 33.040261 -116.913691 102 1399ft 0kts
11-Sep-20 17:33 33.040030 -116.913557 189 1399ft 0kts
11-Sep-20 17:34 33.039135 -116.910285 100 1401ft 22kts
11-Sep-20 17:35 33.038051 -116.907822 283 1403ft 14kts
11-Sep-20 17:36 33.043651 -116.936920 285 1950ft 125kts
11-Sep-20 17:37 33.051596 -116.981227 281 3037ft 145kts
11-Sep-20 17:38 33.059352 -117.028407 279 4232ft 144kts
11-Sep-20 17:39 33.075502 -117.070717 342 5009ft 159kts
11-Sep-20 17:40 33.119897 -117.083622 349 4988ft 166kts
11-Sep-20 17:41 33.165404 -117.092830 347 5114ft 170kts
11-Sep-20 17:42 33.204947 -117.115810 284 4924ft 172kts
11-Sep-20 17:43 33.208861 -117.169930 275 5058ft 163kts
11-Sep-20 17:44 33.214746 -117.224576 273 4819ft 172kts
11-Sep-20 17:45 33.217225 -117.279199 276 4906ft 164kts
11-Sep-20 17:46 33.223488 -117.333052 279 5001ft 158kts
11-Sep-20 17:47 33.230763 -117.380693 279 5942ft 151kts
11-Sep-20 17:48 33.251251 -117.427365 316 6024ft 174kts
11-Sep-20 17:49 33.287437 -117.466890 316 6025ft 176kts
11-Sep-20 17:50 33.323613 -117.506425 316 6024ft 176kts
11-Sep-20 17:51 33.359823 -117.546051 316 6024ft 176kts
11-Sep-20 17:52 33.395408 -117.585004 316 6019ft 177kts
11-Sep-20 17:53 33.431801 -117.624881 316 6036ft 176kts
11-Sep-20 17:54 33.467833 -117.664400 316 6060ft 176kts
11-Sep-20 17:55 33.505067 -117.700578 350 6061ft 177kts
11-Sep-20 17:56 33.554208 -117.705587 353 6056ft 178kts
11-Sep-20 17:57 33.603468 -117.711339 353 6057ft 177kts
11-Sep-20 17:58 33.652651 -117.717107 353 6064ft 177kts
11-Sep-20 17:59 33.699986 -117.733267 339 6060ft 177kts
11-Sep-20 18:00 33.746055 -117.754129 338 6062ft 177kts
11-Sep-20 18:01 33.792420 -117.774146 346 6059ft 177kts
11-Sep-20 18:02 33.841545 -117.779505 356 6039ft 178kts
11-Sep-20 18:03 33.875458 -117.748842 73 6065ft 179kts
11-Sep-20 18:04 33.889318 -117.691845 74 6064ft 179kts
11-Sep-20 18:05 33.903579 -117.634277 74 6054ft 178kts
11-Sep-20 18:06 33.915194 -117.578963 78 5619ft 167kts
11-Sep-20 18:07 33.927047 -117.525663 63 5085ft 159kts
11-Sep-20 18:08 33.946896 -117.480225 62 5074ft 150kts
11-Sep-20 18:09 33.966080 -117.436488 62 5077ft 149kts
11-Sep-20 18:10 33.989958 -117.394658 32 5075ft 160kts
11-Sep-20 18:11 34.032242 -117.377792 355 4168ft 156kts
11-Sep-20 18:12 34.054751 -117.409563 273 3533ft 129kts
11-Sep-20 18:13 34.055010 -117.452512 267 3084ft 118kts
11-Sep-20 18:14 34.055083 -117.490702 269 2579ft 103kts
11-Sep-20 18:15 34.055127 -117.524060 268 2040ft 92kts
11-Sep-20 18:16 34.055131 -117.554200 267 1433ft 89kts
11-Sep-20 18:17 34.054971 -117.583610 268 959ft 82kts
11-Sep-20 18:18 34.054960 -117.605769 269 942ft 67kts
11-Sep-20 18:19 34.052680 -117.612853 200 945ft 12kts
11-Sep-20 18:20 34.052444 -117.613340 270 945ft 0kts
11-Sep-20 18:21 34.052444 -117.613340 270 945ft 0kts
11-Sep-20 18:22 34.052444 -117.613340 270 945ft 0kts
11-Sep-20 18:23 34.052444 -117.613340 270 945ft 0kts
11-Sep-20 18:24 34.052444 -117.613340 270 945ft 0kts
11-Sep-20 18:25 34.052444 -117.613340 270 945ft 0kts
11-Sep-20 18:26 34.052444 -117.613340 270 945ft 0kts
11-Sep-20 18:27 34.052444 -117.613340 270 945ft 0kts
11-Sep-20 18:28 34.052444 -117.613340 270 945ft 0kts
11-Sep-20 18:29 34.052444 -117.613340 270 945ft 0kts
11-Sep-20 18:30 34.052444 -117.613340 270 945ft 0kts
11-Sep-20 18:31 34.052444 -117.613340 270 945ft 0kts
11-Sep-20 18:32 34.052444 -117.613340 270 945ft 0kts
11-Sep-20 18:33 34.052444 -117.613340 270 945ft 0kts

Navigation Log

Ident Type
Flight plan parsing failed, navigation log unavailable